createdAt,value
2022-09-23T00:00:23.107Z,10.94
2022-09-23T00:02:24.803Z,10.94
2022-09-23T00:04:27.655Z,10.93
2022-09-23T00:06:29.637Z,10.95
2022-09-23T00:08:31.638Z,10.75
2022-09-23T00:10:36.136Z,10.70
2022-09-23T00:12:37.829Z,10.64
2022-09-23T00:14:39.595Z,10.61
2022-09-23T00:16:41.642Z,10.28
2022-09-23T00:18:43.899Z,9.95
2022-09-23T00:20:45.492Z,9.74
2022-09-23T00:22:47.078Z,9.76
2022-09-23T00:24:49.104Z,9.78
2022-09-23T00:26:51.481Z,9.89
2022-09-23T00:28:53.286Z,10.01
2022-09-23T00:30:55.044Z,10.13
2022-09-23T00:32:56.861Z,10.22
2022-09-23T00:34:58.549Z,10.33
2022-09-23T00:37:00.179Z,10.42
2022-09-23T00:39:04.506Z,10.49
2022-09-23T00:41:06.705Z,10.51
2022-09-23T00:43:11.845Z,10.27
2022-09-23T00:45:13.630Z,9.93
2022-09-23T00:47:55.648Z,9.55
2022-09-23T00:50:13.106Z,8.85
2022-09-23T00:52:18.764Z,8.73
2022-09-23T00:54:21.249Z,8.99
2022-09-23T00:56:23.458Z,9.20
2022-09-23T00:58:27.520Z,9.31
2022-09-23T01:00:29.282Z,9.34
2022-09-23T01:02:31.667Z,9.31
2022-09-23T01:04:34.056Z,9.13
2022-09-23T01:06:36.098Z,8.76
2022-09-23T01:08:37.877Z,8.95
2022-09-23T01:10:44.662Z,9.17
2022-09-23T01:13:16.720Z,9.38
2022-09-23T01:15:39.062Z,9.57
2022-09-23T01:18:01.890Z,9.58
2022-09-23T01:20:45.458Z,9.35
2022-09-23T01:23:08.301Z,8.98
2022-09-23T01:25:22.060Z,8.69
2022-09-23T01:27:35.311Z,8.10
2022-09-23T01:30:08.644Z,8.06
2022-09-23T01:32:32.124Z,8.12
2022-09-23T01:34:34.778Z,8.11
2022-09-23T01:36:43.268Z,8.28
2022-09-23T01:38:50.926Z,8.40
2022-09-23T01:41:01.321Z,8.63
2022-09-23T01:43:16.385Z,8.75
2022-09-23T01:45:25.626Z,8.91
2022-09-23T01:47:32.398Z,9.01
2022-09-23T01:49:50.838Z,9.13
2022-09-23T01:52:05.960Z,9.20
2022-09-23T01:54:23.276Z,9.28
2022-09-23T01:56:30.676Z,9.32
2022-09-23T01:58:56.834Z,9.35
2022-09-23T02:01:01.744Z,9.42
2022-09-23T02:03:28.208Z,9.41
2022-09-23T02:05:37.759Z,9.32
2022-09-23T02:07:52.118Z,9.33
2022-09-23T02:10:17.806Z,9.36
2022-09-23T02:12:21.256Z,9.37
2022-09-23T02:14:25.824Z,9.42
2022-09-23T02:16:44.927Z,9.48
2022-09-23T02:18:52.215Z,9.32
2022-09-23T02:20:58.670Z,9.07
2022-09-23T02:23:21.437Z,9.08
2022-09-23T02:25:34.075Z,9.23
2022-09-23T02:27:49.206Z,8.88
2022-09-23T02:30:19.235Z,8.58
2022-09-23T02:32:37.653Z,8.39
2022-09-23T02:34:50.868Z,8.31
2022-09-23T02:37:02.768Z,8.37
2022-09-23T02:39:08.944Z,8.33
2022-09-23T02:41:13.859Z,8.38
2022-09-23T02:43:46.255Z,8.19
2022-09-23T02:45:48.292Z,8.15
2022-09-23T02:47:53.511Z,8.00
2022-09-23T02:49:56.405Z,7.97
2022-09-23T02:52:05.969Z,8.01
2022-09-23T02:54:10.725Z,7.90
2022-09-23T02:58:39.737Z,7.80
2022-09-23T03:00:59.482Z,7.87
2022-09-23T03:03:11.558Z,7.84
2022-09-23T03:05:24.069Z,7.86
2022-09-23T03:07:56.091Z,7.93
2022-09-23T03:10:22.888Z,7.97
2022-09-23T03:12:53.114Z,8.06
2022-09-23T03:15:09.680Z,8.28
2022-09-23T03:17:20.104Z,8.25
2022-09-23T03:19:35.446Z,8.36
2022-09-23T03:22:11.581Z,8.38
2022-09-23T03:24:14.558Z,8.46
2022-09-23T03:26:23.495Z,8.51
2022-09-23T03:28:25.669Z,8.55
2022-09-23T03:30:27.779Z,8.29
2022-09-23T03:32:30.158Z,8.11
2022-09-23T03:34:34.267Z,8.13
2022-09-23T03:36:51.623Z,8.25
2022-09-23T03:38:59.479Z,8.06
2022-09-23T03:41:04.286Z,7.87
2022-09-23T03:43:05.960Z,7.64
2022-09-23T03:45:13.084Z,7.58
2022-09-23T03:47:16.255Z,7.36
2022-09-23T03:49:24.395Z,7.42
2022-09-23T03:51:25.997Z,7.44
2022-09-23T03:53:27.620Z,7.44
2022-09-23T03:55:29.348Z,7.36
2022-09-23T03:57:31.981Z,7.37
2022-09-23T03:59:34.146Z,7.21
2022-09-23T04:01:35.703Z,7.10
2022-09-23T04:03:37.352Z,6.87
2022-09-23T04:05:39.165Z,6.74
2022-09-23T04:07:41.216Z,6.67
2022-09-23T04:09:44.419Z,6.54
2022-09-23T04:11:46.096Z,6.43
2022-09-23T04:13:47.709Z,6.41
2022-09-23T04:15:50.292Z,6.43
2022-09-23T04:17:52.184Z,6.30
2022-09-23T04:19:53.877Z,6.24
2022-09-23T04:21:55.495Z,6.01
2022-09-23T04:23:57.213Z,5.95
2022-09-23T04:25:58.845Z,5.95
2022-09-23T04:28:00.548Z,6.00
2022-09-23T04:30:02.342Z,6.03
2022-09-23T04:32:03.963Z,6.01
2022-09-23T04:34:05.688Z,5.91
2022-09-23T04:36:07.718Z,5.95
2022-09-23T04:38:12.796Z,5.77
2022-09-23T04:40:14.546Z,5.71
2022-09-23T04:42:16.284Z,5.82
2022-09-23T04:44:17.903Z,6.02
2022-09-23T04:46:19.630Z,6.16
2022-09-23T04:48:21.297Z,6.34
2022-09-23T04:50:23.685Z,6.36
2022-09-23T04:52:25.261Z,6.56
2022-09-23T04:54:27.660Z,6.73
2022-09-23T04:56:33.725Z,6.94
2022-09-23T04:58:35.993Z,7.05
2022-09-23T05:00:38.078Z,7.22
2022-09-23T05:02:46.701Z,7.35
2022-09-23T05:04:48.321Z,7.30
2022-09-23T05:06:50.073Z,7.39
2022-09-23T05:08:54.603Z,7.55
2022-09-23T05:11:00.171Z,7.71
2022-09-23T05:13:02.038Z,7.69
2022-09-23T05:15:03.837Z,7.75
2022-09-23T05:17:06.374Z,7.84
2022-09-23T05:19:08.160Z,7.85
2022-09-23T05:21:16.140Z,7.82
2022-09-23T05:23:17.765Z,7.85
2022-09-23T05:25:19.357Z,7.99
2022-09-23T05:27:21.608Z,7.93
2022-09-23T05:29:23.217Z,7.99
2022-09-23T05:31:27.637Z,7.93
2022-09-23T05:33:30.094Z,7.91
2022-09-23T05:35:31.694Z,7.76
2022-09-23T05:37:33.764Z,7.76
2022-09-23T05:39:35.565Z,7.78
2022-09-23T05:41:37.162Z,7.83
2022-09-23T05:43:39.158Z,7.84
2022-09-23T05:45:40.751Z,7.83
2022-09-23T05:47:42.945Z,7.96
2022-09-23T05:49:59.195Z,7.87
2022-09-23T05:52:01.708Z,7.98
2022-09-23T05:54:04.569Z,8.09
2022-09-23T05:56:07.605Z,8.38
2022-09-23T05:58:09.490Z,8.37
2022-09-23T06:00:11.571Z,8.50
2022-09-23T06:02:14.734Z,8.50
2022-09-23T06:04:16.336Z,8.43
2022-09-23T06:06:20.074Z,8.53
2022-09-23T06:08:23.060Z,8.38
2022-09-23T06:10:24.794Z,8.38
2022-09-23T06:12:26.333Z,8.35
2022-09-23T06:14:28.869Z,8.57
2022-09-23T06:16:32.719Z,8.52
2022-09-23T06:18:34.985Z,8.50
2022-09-23T06:20:36.761Z,8.77
2022-09-23T06:22:40.137Z,8.93
2022-09-23T06:24:41.874Z,9.07
2022-09-23T06:26:43.583Z,8.84
2022-09-23T06:28:45.983Z,8.70
2022-09-23T06:30:49.577Z,8.90
2022-09-23T06:32:52.231Z,8.81
2022-09-23T06:34:53.913Z,8.91
2022-09-23T06:36:55.628Z,9.14
2022-09-23T06:38:57.238Z,9.31
2022-09-23T06:40:58.972Z,9.43
2022-09-23T06:43:01.948Z,9.22
2022-09-23T06:45:03.691Z,9.05
2022-09-23T06:47:05.412Z,8.92
2022-09-23T06:49:07.359Z,8.76
2022-09-23T06:51:11.277Z,8.76
2022-09-23T06:53:12.956Z,8.84
2022-09-23T06:55:15.109Z,9.02
2022-09-23T06:57:16.917Z,8.82
2022-09-23T06:59:18.790Z,9.11
2022-09-23T07:01:20.495Z,8.96
2022-09-23T07:03:22.373Z,9.28
2022-09-23T07:05:24.319Z,9.40
2022-09-23T07:07:26.649Z,9.55
2022-09-23T07:09:28.207Z,9.39
2022-09-23T07:11:30.274Z,9.08
2022-09-23T07:13:33.544Z,9.38
2022-09-23T07:15:35.284Z,9.76
2022-09-23T07:17:36.959Z,9.96
2022-09-23T07:19:38.566Z,10.24
2022-09-23T07:21:40.112Z,10.46
2022-09-23T07:23:47.113Z,10.24
2022-09-23T07:25:50.330Z,10.28
2022-09-23T07:27:51.955Z,10.00
2022-09-23T07:29:54.927Z,10.11
2022-09-23T07:32:07.336Z,9.92
2022-09-23T07:34:12.788Z,9.87
2022-09-23T07:36:17.599Z,10.01
2022-09-23T07:38:19.247Z,10.16
2022-09-23T07:40:20.879Z,10.27
2022-09-23T07:42:22.552Z,10.10
2022-09-23T07:44:25.596Z,10.32
2022-09-23T07:46:30.173Z,10.27
2022-09-23T07:48:34.339Z,10.20
2022-09-23T07:50:39.250Z,10.61
2022-09-23T07:52:41.113Z,10.92
2022-09-23T07:54:42.929Z,11.22
2022-09-23T07:56:45.063Z,11.32
2022-09-23T07:59:05.399Z,11.06
2022-09-23T08:01:12.127Z,10.90
2022-09-23T08:03:14.790Z,10.82
2022-09-23T08:05:16.664Z,10.92
2022-09-23T08:07:19.246Z,11.13
2022-09-23T08:09:23.978Z,10.51
2022-09-23T08:11:26.604Z,10.61
2022-09-23T08:13:28.273Z,10.59
2022-09-23T08:15:31.201Z,10.50
2022-09-23T08:17:32.800Z,10.75
2022-09-23T08:19:34.432Z,10.70
2022-09-23T08:21:36.498Z,10.75
2022-09-23T08:23:38.122Z,10.77
2022-09-23T08:25:40.160Z,10.55
2022-09-23T08:27:41.854Z,10.28
2022-09-23T08:29:43.550Z,10.51
2022-09-23T08:31:45.705Z,10.59
2022-09-23T08:33:47.368Z,11.11
2022-09-23T08:35:48.923Z,11.44
2022-09-23T08:37:50.570Z,11.84
2022-09-23T08:39:52.187Z,11.99
2022-09-23T08:41:58.956Z,12.29
2022-09-23T08:44:42.666Z,12.65
2022-09-23T08:46:52.823Z,12.83
2022-09-23T08:48:55.388Z,12.45
2022-09-23T08:51:03.611Z,12.24
2022-09-23T08:53:11.809Z,12.47
2022-09-23T08:55:15.153Z,12.41
2022-09-23T08:57:37.603Z,12.63
2022-09-23T08:59:43.094Z,12.67
2022-09-23T09:01:52.857Z,12.57
2022-09-23T09:04:00.739Z,13.01
2022-09-23T09:06:03.126Z,13.28
2022-09-23T09:08:05.038Z,13.51
2022-09-23T09:10:21.616Z,13.22
2022-09-23T09:12:43.136Z,13.58
2022-09-23T09:14:58.552Z,13.20
2022-09-23T09:17:34.411Z,13.29
2022-09-23T09:19:56.573Z,13.80
2022-09-23T09:21:58.369Z,14.04
2022-09-23T09:24:00.545Z,13.97
2022-09-23T09:26:03.413Z,14.01
2022-09-23T09:28:14.114Z,13.75
2022-09-23T09:30:16.529Z,13.22
2022-09-23T09:32:46.297Z,12.78
2022-09-23T09:34:54.745Z,13.02
2022-09-23T09:37:12.685Z,13.30
2022-09-23T09:39:14.991Z,13.64
2022-09-23T09:41:18.169Z,13.90
2022-09-23T09:43:23.736Z,14.26
2022-09-23T09:45:46.318Z,14.54
2022-09-23T09:48:03.664Z,14.87
2022-09-23T09:50:11.080Z,14.21
2022-09-23T09:52:14.162Z,13.90
2022-09-23T09:54:18.266Z,13.96
2022-09-23T09:56:26.907Z,14.26
2022-09-23T09:58:52.025Z,14.63
2022-09-23T10:00:53.979Z,14.93
2022-09-23T10:02:59.341Z,15.17
2022-09-23T10:05:07.631Z,14.71
2022-09-23T10:07:13.035Z,14.17
2022-09-23T10:09:19.545Z,14.13
2022-09-23T10:11:21.237Z,14.49
2022-09-23T10:13:27.318Z,14.61
2022-09-23T10:15:44.667Z,13.76
2022-09-23T10:17:50.405Z,13.59
2022-09-23T10:20:00.393Z,13.88
2022-09-23T10:22:10.141Z,14.21
2022-09-23T10:24:21.734Z,14.46
2022-09-23T10:26:50.687Z,14.54
2022-09-23T10:28:55.810Z,14.60
2022-09-23T10:31:15.724Z,14.32
2022-09-23T10:33:27.934Z,14.46
2022-09-23T10:35:34.689Z,14.93
2022-09-23T10:37:41.394Z,15.17
2022-09-23T10:40:02.015Z,15.38
2022-09-23T10:42:31.568Z,15.60
2022-09-23T10:45:16.883Z,15.88
2022-09-23T10:47:34.601Z,15.24
2022-09-23T10:49:41.114Z,15.09
2022-09-23T10:52:09.501Z,15.10
2022-09-23T10:54:32.448Z,14.43
2022-09-23T10:56:37.310Z,14.70
2022-09-23T10:59:07.820Z,14.57
2022-09-23T11:01:25.603Z,14.76
2022-09-23T11:03:33.620Z,14.14
2022-09-23T11:05:56.865Z,14.39
2022-09-23T11:08:13.632Z,14.57
2022-09-23T11:10:48.843Z,14.86
2022-09-23T11:13:15.591Z,15.29
2022-09-23T11:15:32.772Z,14.81
2022-09-23T11:18:11.527Z,14.75
2022-09-23T11:20:23.157Z,15.07
2022-09-23T11:22:49.195Z,15.31
2022-09-23T11:25:09.601Z,15.76
2022-09-23T11:27:24.078Z,15.34
2022-09-23T11:29:37.130Z,14.43
2022-09-23T11:31:47.662Z,14.45
2022-09-23T11:34:04.684Z,14.20
2022-09-23T11:36:15.001Z,14.01
2022-09-23T11:38:27.995Z,14.28
2022-09-23T11:40:35.508Z,14.26
2022-09-23T11:42:50.991Z,14.46
2022-09-23T11:45:02.301Z,14.73
2022-09-23T11:47:26.258Z,15.31
2022-09-23T11:49:55.329Z,15.49
2022-09-23T11:52:13.528Z,15.33
2022-09-23T11:54:23.069Z,14.92
2022-09-23T11:56:37.079Z,15.31
2022-09-23T11:58:49.127Z,15.20
2022-09-23T12:01:01.503Z,14.99
2022-09-23T12:03:37.030Z,15.12
2022-09-23T12:05:47.375Z,15.22
2022-09-23T12:07:56.760Z,15.35
2022-09-23T12:10:07.861Z,15.22
2022-09-23T12:12:27.514Z,14.98
2022-09-23T12:14:41.225Z,15.27
2022-09-23T12:16:45.997Z,15.65
2022-09-23T12:19:17.163Z,15.95
2022-09-23T12:21:39.133Z,15.57
2022-09-23T12:23:47.779Z,15.03
2022-09-23T12:26:02.056Z,14.85
2022-09-23T12:28:14.818Z,14.67
2022-09-23T12:30:22.912Z,14.89
2022-09-23T12:32:25.178Z,14.78
2022-09-23T12:34:49.326Z,14.82
2022-09-23T12:36:51.037Z,14.89
2022-09-23T12:38:54.839Z,14.93
2022-09-23T12:40:56.617Z,15.04
2022-09-23T12:43:01.174Z,15.21
2022-09-23T12:45:32.142Z,15.08
2022-09-23T12:47:41.058Z,14.62
2022-09-23T12:49:43.748Z,14.46
2022-09-23T12:52:10.874Z,14.11
2022-09-23T12:54:22.832Z,13.85
2022-09-23T12:56:24.476Z,13.46
2022-09-23T12:58:39.415Z,13.61
2022-09-23T13:00:41.049Z,13.77
2022-09-23T13:03:11.349Z,13.63
2022-09-23T13:05:38.051Z,13.54
2022-09-23T13:07:45.471Z,13.56
2022-09-23T13:09:49.757Z,13.45
2022-09-23T13:11:52.873Z,13.62
2022-09-23T13:13:56.053Z,13.69
2022-09-23T13:16:19.376Z,13.80
2022-09-23T13:18:20.906Z,13.89
2022-09-23T13:20:23.291Z,13.82
2022-09-23T13:22:49.806Z,14.25
2022-09-23T13:24:54.685Z,14.42
2022-09-23T13:27:05.746Z,14.27
2022-09-23T13:29:16.086Z,14.42
2022-09-23T13:31:20.333Z,14.59
2022-09-23T13:33:37.686Z,14.73
2022-09-23T13:35:46.232Z,14.42
2022-09-23T13:37:49.035Z,14.56
2022-09-23T13:39:51.253Z,14.52
2022-09-23T13:41:54.204Z,14.83
2022-09-23T13:44:00.737Z,15.06
2022-09-23T13:46:05.230Z,15.05
2022-09-23T13:48:11.263Z,14.89
2022-09-23T13:50:18.808Z,15.14
2022-09-23T13:52:25.416Z,15.06
2022-09-23T13:54:28.926Z,14.96
2022-09-23T13:56:33.869Z,14.91
2022-09-23T13:58:36.608Z,15.15
2022-09-23T14:00:39.059Z,15.34
2022-09-23T14:02:44.283Z,15.42
2022-09-23T14:04:46.721Z,15.18
2022-09-23T14:06:48.475Z,15.21
2022-09-23T14:08:50.851Z,15.35
2022-09-23T14:10:53.793Z,15.66
2022-09-23T14:12:56.673Z,15.91
2022-09-23T14:14:58.340Z,16.06
2022-09-23T14:17:00.117Z,16.22
2022-09-23T14:19:02.146Z,16.28
2022-09-23T14:21:04.401Z,16.47
2022-09-23T14:23:09.857Z,16.58
2022-09-23T14:25:16.249Z,16.80
2022-09-23T14:27:39.762Z,16.90
2022-09-23T14:29:43.689Z,17.10
2022-09-23T14:31:57.228Z,17.23
2022-09-23T14:33:58.948Z,16.68
2022-09-23T14:36:08.890Z,16.36
2022-09-23T14:38:29.867Z,15.94
2022-09-23T14:40:53.668Z,16.01
2022-09-23T14:43:34.185Z,15.75
2022-09-23T14:45:38.424Z,15.61
2022-09-23T14:47:44.072Z,15.81
2022-09-23T14:50:09.773Z,15.87
2022-09-23T14:52:11.455Z,15.91
2022-09-23T14:54:39.853Z,15.65
2022-09-23T14:56:42.251Z,15.95
2022-09-23T14:58:52.046Z,16.27
2022-09-23T15:01:02.562Z,16.37
2022-09-23T15:03:13.549Z,16.53
2022-09-23T15:05:23.226Z,16.34
2022-09-23T15:07:26.794Z,16.17
2022-09-23T15:09:35.168Z,16.15
2022-09-23T15:11:36.808Z,15.77
2022-09-23T15:13:41.363Z,15.42
2022-09-23T15:15:46.248Z,15.40
2022-09-23T15:17:48.165Z,15.42
2022-09-23T15:19:56.921Z,15.38
2022-09-23T15:21:58.522Z,15.27
2022-09-23T15:24:00.366Z,15.25
2022-09-23T15:26:12.060Z,14.95
2022-09-23T15:28:16.808Z,15.02
2022-09-23T15:30:20.102Z,15.06
2022-09-23T15:32:22.231Z,14.92
2022-09-23T15:34:23.809Z,15.23
2022-09-23T15:36:26.851Z,15.41
2022-09-23T15:38:28.459Z,15.19
2022-09-23T15:40:35.283Z,15.25
2022-09-23T15:42:38.485Z,15.41
2022-09-23T15:44:40.091Z,15.12
2022-09-23T15:46:52.206Z,15.05
2022-09-23T15:48:58.794Z,15.24
2022-09-23T15:51:14.489Z,15.10
2022-09-23T15:53:29.636Z,15.01
2022-09-23T15:55:32.155Z,14.88
2022-09-23T15:57:33.709Z,14.52
2022-09-23T15:59:38.154Z,14.24
2022-09-23T16:01:41.913Z,14.16
2022-09-23T16:03:43.615Z,14.03
2022-09-23T16:05:46.980Z,13.90
2022-09-23T16:07:52.423Z,13.82
2022-09-23T16:09:54.801Z,13.45
2022-09-23T16:11:56.428Z,13.62
2022-09-23T16:13:59.525Z,13.64
2022-09-23T16:16:01.979Z,13.79
2022-09-23T16:18:03.666Z,13.89
2022-09-23T16:20:05.649Z,14.06
2022-09-23T16:22:07.440Z,14.17
2022-09-23T16:24:17.211Z,14.22
2022-09-23T16:26:29.788Z,14.24
2022-09-23T16:28:31.437Z,14.29
2022-09-23T16:30:34.508Z,14.30
2022-09-23T16:32:36.229Z,14.28
2022-09-23T16:34:37.810Z,14.30
2022-09-23T16:36:41.456Z,14.31
2022-09-23T16:38:43.168Z,14.31
2022-09-23T16:40:47.203Z,14.28
2022-09-23T16:42:52.129Z,14.28
2022-09-23T16:44:53.877Z,14.27
2022-09-23T16:46:57.722Z,14.27
2022-09-23T16:49:00.436Z,14.24
2022-09-23T16:51:05.398Z,14.25
2022-09-23T16:53:07.090Z,14.26
2022-09-23T16:55:09.263Z,14.27
2022-09-23T16:57:13.439Z,14.24
2022-09-23T16:59:16.150Z,14.19
2022-09-23T17:01:43.441Z,14.15
2022-09-23T17:03:45.300Z,14.06
2022-09-23T17:05:47.268Z,14.05
2022-09-23T17:07:48.874Z,14.03
2022-09-23T17:09:50.983Z,13.98
2022-09-23T17:11:58.775Z,13.93
2022-09-23T17:14:00.882Z,13.93
2022-09-23T17:16:22.826Z,13.91
2022-09-23T17:18:24.602Z,13.85
2022-09-23T17:20:26.202Z,13.80
2022-09-23T17:22:29.832Z,13.78
2022-09-23T17:24:31.434Z,13.76
2022-09-23T17:26:33.117Z,13.76
2022-09-23T17:28:34.715Z,13.74
2022-09-23T17:30:36.964Z,13.72
2022-09-23T17:32:38.614Z,13.78
2022-09-23T17:34:40.309Z,13.78
2022-09-23T17:36:41.852Z,13.76
2022-09-23T17:38:45.017Z,13.71
2022-09-23T17:40:56.583Z,13.70
2022-09-23T17:42:58.168Z,13.70
2022-09-23T17:44:59.895Z,13.68
2022-09-23T17:47:02.554Z,13.68
2022-09-23T17:49:06.693Z,13.70
2022-09-23T17:51:18.874Z,13.67
2022-09-23T17:53:20.461Z,13.66
2022-09-23T17:55:22.262Z,13.62
2022-09-23T17:57:23.882Z,13.61
2022-09-23T17:59:26.227Z,13.58
2022-09-23T18:01:28.041Z,13.60
2022-09-23T18:03:31.221Z,13.57
2022-09-23T18:05:32.799Z,13.55
2022-09-23T18:07:34.371Z,13.54
2022-09-23T18:09:36.041Z,13.54
2022-09-23T18:11:42.712Z,13.50
2022-09-23T18:13:51.459Z,13.48
2022-09-23T18:15:53.397Z,13.45
2022-09-23T18:17:55.142Z,13.45
2022-09-23T18:19:56.695Z,13.42
2022-09-23T18:21:58.605Z,13.38
2022-09-23T18:24:21.642Z,13.28
2022-09-23T18:26:23.649Z,13.03
2022-09-23T18:28:25.261Z,12.90
2022-09-23T18:30:27.385Z,12.82
2022-09-23T18:32:28.950Z,12.80
2022-09-23T18:34:30.615Z,12.67
2022-09-23T18:36:33.158Z,12.65
2022-09-23T18:38:34.911Z,12.62
2022-09-23T18:40:37.848Z,12.62
2022-09-23T18:42:40.398Z,12.55
2022-09-23T18:44:41.962Z,12.58
2022-09-23T18:46:44.886Z,12.55
2022-09-23T18:49:06.238Z,12.56
2022-09-23T18:51:09.665Z,12.53
2022-09-23T18:53:11.352Z,12.50
2022-09-23T18:55:13.032Z,12.51
2022-09-23T18:57:14.707Z,12.53
2022-09-23T18:59:19.615Z,12.54
2022-09-23T19:01:22.699Z,12.48
2022-09-23T19:03:24.339Z,12.45
2022-09-23T19:05:26.142Z,12.49
2022-09-23T19:07:27.785Z,12.49
2022-09-23T19:09:29.336Z,12.47
2022-09-23T19:11:32.727Z,12.48
2022-09-23T19:13:35.349Z,12.41
2022-09-23T19:15:36.964Z,12.41
2022-09-23T19:17:38.734Z,12.43
2022-09-23T19:19:41.195Z,12.43
2022-09-23T19:21:43.469Z,12.42
2022-09-23T19:23:47.820Z,12.38
2022-09-23T19:25:49.600Z,12.36
2022-09-23T19:27:51.222Z,12.28
2022-09-23T19:29:53.154Z,12.25
2022-09-23T19:31:54.996Z,12.25
2022-09-23T19:34:02.421Z,12.24
2022-09-23T19:36:04.542Z,12.25
2022-09-23T19:38:06.923Z,12.26
2022-09-23T19:40:09.298Z,12.25
2022-09-23T19:42:10.946Z,12.27
2022-09-23T19:44:13.081Z,12.25
2022-09-23T19:46:15.529Z,12.24
2022-09-23T19:48:17.184Z,12.24
2022-09-23T19:50:19.183Z,12.24
2022-09-23T19:52:20.782Z,12.28
2022-09-23T19:54:22.379Z,12.28
2022-09-23T19:56:23.985Z,12.26
2022-09-23T19:58:26.377Z,12.27
2022-09-23T20:00:28.164Z,12.27
2022-09-23T20:02:29.833Z,12.28
2022-09-23T20:04:31.445Z,12.25
2022-09-23T20:06:34.231Z,12.18
2022-09-23T20:08:37.619Z,12.20
2022-09-23T20:10:39.888Z,12.16
2022-09-23T20:12:42.342Z,12.12
2022-09-23T20:14:43.992Z,12.14
2022-09-23T20:16:46.256Z,12.10
2022-09-23T20:18:51.920Z,12.04
2022-09-23T20:20:56.482Z,12.00
2022-09-23T20:22:58.100Z,11.97
2022-09-23T20:25:00.644Z,11.97
2022-09-23T20:27:11.223Z,11.97
2022-09-23T20:29:12.864Z,11.94
2022-09-23T20:31:15.427Z,11.87
2022-09-23T20:33:17.190Z,11.83
2022-09-23T20:35:18.780Z,11.77
2022-09-23T20:37:21.115Z,11.73
2022-09-23T20:39:22.724Z,11.73
2022-09-23T20:41:24.319Z,11.69
2022-09-23T20:43:26.498Z,11.63
2022-09-23T20:45:28.134Z,11.59
2022-09-23T20:47:29.791Z,11.58
2022-09-23T20:49:34.082Z,11.62
2022-09-23T20:51:36.831Z,11.62
2022-09-23T20:53:38.565Z,11.66
2022-09-23T20:55:53.965Z,11.64
2022-09-23T20:57:55.741Z,11.66
2022-09-23T20:59:58.062Z,11.66
2022-09-23T21:01:59.880Z,11.64
2022-09-23T21:04:04.127Z,11.66
2022-09-23T21:06:07.704Z,11.68
2022-09-23T21:08:09.278Z,11.72
2022-09-23T21:10:11.157Z,11.67
2022-09-23T21:12:12.767Z,11.64
2022-09-23T21:14:15.070Z,11.65
2022-09-23T21:16:18.656Z,11.68
2022-09-23T21:18:22.610Z,11.69
2022-09-23T21:20:24.378Z,11.71
2022-09-23T21:22:26.343Z,11.71
2022-09-23T21:26:50.675Z,11.66
2022-09-23T21:29:02.471Z,11.65
2022-09-23T21:31:09.716Z,11.66
2022-09-23T21:33:11.311Z,11.66
2022-09-23T21:35:13.025Z,11.65
2022-09-23T21:37:14.621Z,11.65
2022-09-23T21:39:16.350Z,11.68
2022-09-23T21:41:18.716Z,11.72
2022-09-23T21:43:20.289Z,11.76
2022-09-23T21:45:21.844Z,11.72
2022-09-23T21:47:23.724Z,11.67
2022-09-23T21:49:25.284Z,11.65
2022-09-23T21:51:28.671Z,11.63
2022-09-23T21:53:31.479Z,11.61
2022-09-23T21:55:33.125Z,11.63
2022-09-23T21:57:34.747Z,11.66
2022-09-23T21:59:36.369Z,11.67
2022-09-23T22:01:41.499Z,11.70
2022-09-23T22:03:44.023Z,11.71
2022-09-23T22:05:45.687Z,11.69
2022-09-23T22:07:47.278Z,11.65
2022-09-23T22:09:48.961Z,11.66
2022-09-23T22:12:05.726Z,11.63
2022-09-23T22:14:10.607Z,11.57
2022-09-23T22:16:16.850Z,11.54
2022-09-23T22:18:20.048Z,11.47
2022-09-23T22:20:22.077Z,11.39
2022-09-23T22:22:23.832Z,11.19
2022-09-23T22:24:25.423Z,10.74
2022-09-23T22:26:37.886Z,10.49
2022-09-23T22:28:58.280Z,10.41
2022-09-23T22:31:18.120Z,10.49
2022-09-23T22:33:19.876Z,10.54
2022-09-23T22:35:21.855Z,10.61
2022-09-23T22:37:35.712Z,10.65
2022-09-23T22:39:37.514Z,10.75
2022-09-23T22:41:39.444Z,10.78
2022-09-23T22:43:41.324Z,10.80
2022-09-23T22:45:50.147Z,10.81
2022-09-23T22:47:53.271Z,10.86
2022-09-23T22:49:55.567Z,10.87
2022-09-23T22:51:57.262Z,10.92
2022-09-23T22:53:58.944Z,10.95
2022-09-23T22:56:01.231Z,10.91
2022-09-23T22:58:21.358Z,10.89
2022-09-23T23:00:24.634Z,10.88
2022-09-23T23:02:26.210Z,10.85
2022-09-23T23:04:28.763Z,10.86
2022-09-23T23:06:49.111Z,10.83
2022-09-23T23:08:50.848Z,10.86
2022-09-23T23:10:52.716Z,10.82
2022-09-23T23:12:54.438Z,10.81
2022-09-23T23:14:56.599Z,10.79
2022-09-23T23:16:59.480Z,10.78
2022-09-23T23:19:06.751Z,10.75
2022-09-23T23:21:15.191Z,10.73
2022-09-23T23:23:16.937Z,10.75
2022-09-23T23:25:18.600Z,10.71
2022-09-23T23:27:20.888Z,10.70
2022-09-23T23:29:23.385Z,10.68
2022-09-23T23:31:27.475Z,10.69
2022-09-23T23:33:29.121Z,10.67
2022-09-23T23:35:31.028Z,10.64
2022-09-23T23:37:32.624Z,10.62
2022-09-23T23:39:34.749Z,10.62
2022-09-23T23:41:37.560Z,10.62
2022-09-23T23:43:40.109Z,10.60
2022-09-23T23:45:43.657Z,10.49
2022-09-23T23:47:45.652Z,10.39
2022-09-23T23:49:47.217Z,10.30
2022-09-23T23:51:49.015Z,10.31
2022-09-23T23:53:50.846Z,10.31
2022-09-23T23:55:52.609Z,10.21
2022-09-23T23:57:54.201Z,10.07
2022-09-23T23:59:55.892Z,10.02
